Johannes - S. — V2CR9 — position and weather

sailwx.info

Track history (hours):
 
Tides and Currents Weather Stations Pressure Air Temp Water Temp Dewpoint Dewpoint Depression Visibility Wind Speed Wind Dir Waves Ship Positions

Johannes - S.

Last reported at 2018-Feb-20 07:05 UTC. Time now 2018-Feb-25 03:57 UTC.
Position N 38°09' W 074°40'.

Length 210 m; draft 8 m.

Type: Cargo ship. MMSI: 305090000.

Date/timePositionNaut miles runAvg speedWind from/ knotsBaromVisibWave heightAir tempDewpointWater temp
2018-Feb-20 07:05N 38°09' W 074°40'221.2
2018-Feb-20 07:00N 38°11' W 074°40'2518.3
2018-Feb-20 05:38N 38°35' W 074°51'4 9.9
2018-Feb-20 05:15N 38°38' W 074°54'3 9.8
2018-Feb-20 04:57N 38°40' W 074°56'5 9.7
2018-Feb-20 04:29N 38°44' W 074°59'5 7.8
2018-Feb-20 03:51N 38°48' W 075°03'6 8.8
2018-Feb-20 03:12N 38°53' W 075°05'315.9
2018-Feb-20 03:01N 38°56' W 075°06'917.7
2018-Feb-20 02:30N 39°04' W 075°11'816.1
2018-Feb-20 02:01N 39°11' W 075°16'816.4
2018-Feb-20 01:30N 39°18' W 075°23'816.7
2018-Feb-20 01:00N 39°24' W 075°30'815.1
2018-Feb-20 00:30N 39°31' W 075°33'713.3
2018-Feb-20 00:01N 39°38' W 075°35'714.3
2018-Feb-19 23:31N 39°44' W 075°30'612.2
2018-Feb-19 23:00N 39°48' W 075°25'611.4
2018-Feb-19 22:29N 39°51' W 075°18'510.5
2018-Feb-19 22:01N 39°53' W 075°12'3 6.5
2018-Feb-19 21:31N 39°54' W 075°08'0 0.3
2018-Feb-19 20:59N 39°54' W 075°08'0 0.0
2018-Feb-19 20:29N 39°54' W 075°08'0 0.0
2018-Feb-19 19:59N 39°54' W 075°08'0 0.0
2018-Feb-19 19:29N 39°54' W 075°08'0 0.0
2018-Feb-19 18:59N 39°54' W 075°08'0 0.0
2018-Feb-19 18:29N 39°54' W 075°08'0 0.0
2018-Feb-19 17:59N 39°54' W 075°08'0 0.0
2018-Feb-19 17:29N 39°54' W 075°08'0 0.0
2018-Feb-19 16:59N 39°54' W 075°08'0 0.0
2018-Feb-19 16:29N 39°54' W 075°08'0 0.0
2018-Feb-19 15:59N 39°54' W 075°08'0 0.0
2018-Feb-19 15:29N 39°54' W 075°08'0 0.0
2018-Feb-19 14:59N 39°54' W 075°08'0 0.0
2018-Feb-19 14:29N 39°54' W 075°08'0 0.0
2018-Feb-19 13:59N 39°54' W 075°08'0 0.0
2018-Feb-19 13:29N 39°54' W 075°08'0 0.0
2018-Feb-19 12:59N 39°54' W 075°08'0 0.0
2018-Feb-19 12:29N 39°54' W 075°08'0 0.0
2018-Feb-19 11:59N 39°54' W 075°08'0 0.0
2018-Feb-19 11:29N 39°54' W 075°08'0 0.0
2018-Feb-19 10:59N 39°54' W 075°08'0 0.0
2018-Feb-19 10:29N 39°54' W 075°08'0 0.0
2018-Feb-19 09:59N 39°54' W 075°08'0 0.0
2018-Feb-19 09:29N 39°54' W 075°08'0 0.0
2018-Feb-19 08:56N 39°54' W 075°08'0 0.0
2018-Feb-19 08:23N 39°54' W 075°08'0 0.0
2018-Feb-19 07:59N 39°54' W 075°08'0 0.0
2018-Feb-19 07:29N 39°54' W 075°08'0 0.0
2018-Feb-19 06:59N 39°54' W 075°08'0 0.0
2018-Feb-19 06:29N 39°54' W 075°08'0 0.0
2018-Feb-19 05:59N 39°54' W 075°08'0 0.0
2018-Feb-19 05:29N 39°54' W 075°08'0 0.0
2018-Feb-19 04:56N 39°54' W 075°08'0 0.0
2018-Feb-19 04:26N 39°54' W 075°08'0 0.0
2018-Feb-19 03:59N 39°54' W 075°08'0 0.0
2018-Feb-19 03:29N 39°54' W 075°08'0 0.0
2018-Feb-19 02:59N 39°54' W 075°08'0 0.0
2018-Feb-19 02:29N 39°54' W 075°08'0 0.0
2018-Feb-19 01:59N 39°54' W 075°08'0 0.0
2018-Feb-19 01:29N 39°54' W 075°08'0 0.0
2018-Feb-19 00:59N 39°54' W 075°08'0 0.0
2018-Feb-19 00:29N 39°54' W 075°08'0 0.0
2018-Feb-18 23:59N 39°54' W 075°08'0 0.0
2018-Feb-18 23:29N 39°54' W 075°08'0 0.0
2018-Feb-18 22:59N 39°54' W 075°08'0 0.0
2018-Feb-18 22:29N 39°54' W 075°08'0 0.0
2018-Feb-18 21:59N 39°54' W 075°08'0 0.0
2018-Feb-18 21:29N 39°54' W 075°08'0 0.0
2018-Feb-18 20:59N 39°54' W 075°08'0 0.0
2018-Feb-18 20:29N 39°54' W 075°08'0 0.0
2018-Feb-18 19:59N 39°54' W 075°08'0 0.0
2018-Feb-18 19:29N 39°54' W 075°08'0 0.0
2018-Feb-18 18:59N 39°54' W 075°08'0 0.0
2018-Feb-18 18:29N 39°54' W 075°08'0 0.0
2018-Feb-18 17:59N 39°54' W 075°08'0 0.0
2018-Feb-18 17:29N 39°54' W 075°08'0 0.0
2018-Feb-18 16:59N 39°54' W 075°08'0 0.0
2018-Feb-18 16:29N 39°54' W 075°08'0 0.0
2018-Feb-18 15:59N 39°54' W 075°08'0 0.0
2018-Feb-18 15:29N 39°54' W 075°08'0 0.0
2018-Feb-18 14:59N 39°54' W 075°08'0 0.0
2018-Feb-18 14:29N 39°54' W 075°08'0 0.0
2018-Feb-18 13:59N 39°54' W 075°08'0 0.0
2018-Feb-18 13:29N 39°54' W 075°08'0 0.0
2018-Feb-18 12:59N 39°54' W 075°08'0 0.0
2018-Feb-18 12:29N 39°54' W 075°08'0 0.0
2018-Feb-18 11:59N 39°54' W 075°08'0 0.3
2018-Feb-18 11:31N 39°54' W 075°08'4 7.9
2018-Feb-18 11:00N 39°52' W 075°13'610.8
2018-Feb-18 10:30N 39°51' W 075°20'5 9.8
2018-Feb-18 10:00N 39°48' W 075°25'611.1
2018-Feb-18 09:31N 39°44' W 075°30'815.5
2018-Feb-18 09:01N 39°38' W 075°35'815.2
2018-Feb-18 08:31N 39°30' W 075°33'815.6
2018-Feb-18 08:00N 39°23' W 075°29'917.3
2018-Feb-18 07:30N 39°17' W 075°21'817.0
2018-Feb-18 07:00N 39°10' W 075°15'816.7
2018-Feb-18 06:30N 39°02' W 075°10'816.3
2018-Feb-18 06:00N 38°55' W 075°06'  
Track history (hours):
 
Tides and Currents Weather Stations Pressure Air Temp Water Temp Dewpoint Dewpoint Depression Visibility Wind Speed Wind Dir Waves Ship Positions

Johannes - S.

Last reported at 2018-Feb-20 07:05 UTC. Time now 2018-Feb-25 03:57 UTC.
Position N 38°09' W 074°40'.

Length 210 m; draft 8 m.

Type: Cargo ship. MMSI: 305090000.

Date/timePositionNaut miles runAvg speedWind from/ knotsBaromVisibWave heightAir tempDewpointWater temp
2018-Feb-20 07:05N 38°09' W 074°40'221.2
2018-Feb-20 07:00N 38°11' W 074°40'2518.3
2018-Feb-20 05:38N 38°35' W 074°51'4 9.9
2018-Feb-20 05:15N 38°38' W 074°54'3 9.8
2018-Feb-20 04:57N 38°40' W 074°56'5 9.7
2018-Feb-20 04:29N 38°44' W 074°59'5 7.8
2018-Feb-20 03:51N 38°48' W 075°03'6 8.8
2018-Feb-20 03:12N 38°53' W 075°05'315.9
2018-Feb-20 03:01N 38°56' W 075°06'917.7
2018-Feb-20 02:30N 39°04' W 075°11'816.1
2018-Feb-20 02:01N 39°11' W 075°16'816.4
2018-Feb-20 01:30N 39°18' W 075°23'816.7
2018-Feb-20 01:00N 39°24' W 075°30'815.1
2018-Feb-20 00:30N 39°31' W 075°33'713.3
2018-Feb-20 00:01N 39°38' W 075°35'714.3
2018-Feb-19 23:31N 39°44' W 075°30'612.2
2018-Feb-19 23:00N 39°48' W 075°25'611.4
2018-Feb-19 22:29N 39°51' W 075°18'510.5
2018-Feb-19 22:01N 39°53' W 075°12'3 6.5
2018-Feb-19 21:31N 39°54' W 075°08'0 0.3
2018-Feb-19 20:59N 39°54' W 075°08'0 0.0
2018-Feb-19 20:29N 39°54' W 075°08'0 0.0
2018-Feb-19 19:59N 39°54' W 075°08'0 0.0
2018-Feb-19 19:29N 39°54' W 075°08'0 0.0
2018-Feb-19 18:59N 39°54' W 075°08'0 0.0
2018-Feb-19 18:29N 39°54' W 075°08'0 0.0
2018-Feb-19 17:59N 39°54' W 075°08'0 0.0
2018-Feb-19 17:29N 39°54' W 075°08'0 0.0
2018-Feb-19 16:59N 39°54' W 075°08'0 0.0
2018-Feb-19 16:29N 39°54' W 075°08'0 0.0
2018-Feb-19 15:59N 39°54' W 075°08'0 0.0
2018-Feb-19 15:29N 39°54' W 075°08'0 0.0
2018-Feb-19 14:59N 39°54' W 075°08'0 0.0
2018-Feb-19 14:29N 39°54' W 075°08'0 0.0
2018-Feb-19 13:59N 39°54' W 075°08'0 0.0
2018-Feb-19 13:29N 39°54' W 075°08'0 0.0
2018-Feb-19 12:59N 39°54' W 075°08'0 0.0
2018-Feb-19 12:29N 39°54' W 075°08'0 0.0
2018-Feb-19 11:59N 39°54' W 075°08'0 0.0
2018-Feb-19 11:29N 39°54' W 075°08'0 0.0
2018-Feb-19 10:59N 39°54' W 075°08'0 0.0
2018-Feb-19 10:29N 39°54' W 075°08'0 0.0
2018-Feb-19 09:59N 39°54' W 075°08'0 0.0
2018-Feb-19 09:29N 39°54' W 075°08'0 0.0
2018-Feb-19 08:56N 39°54' W 075°08'0 0.0
2018-Feb-19 08:23N 39°54' W 075°08'0 0.0
2018-Feb-19 07:59N 39°54' W 075°08'0 0.0
2018-Feb-19 07:29N 39°54' W 075°08'0 0.0
2018-Feb-19 06:59N 39°54' W 075°08'0 0.0
2018-Feb-19 06:29N 39°54' W 075°08'0 0.0
2018-Feb-19 05:59N 39°54' W 075°08'0 0.0
2018-Feb-19 05:29N 39°54' W 075°08'0 0.0
2018-Feb-19 04:56N 39°54' W 075°08'0 0.0
2018-Feb-19 04:26N 39°54' W 075°08'0 0.0
2018-Feb-19 03:59N 39°54' W 075°08'0 0.0
2018-Feb-19 03:29N 39°54' W 075°08'0 0.0
2018-Feb-19 02:59N 39°54' W 075°08'0 0.0
2018-Feb-19 02:29N 39°54' W 075°08'0 0.0
2018-Feb-19 01:59N 39°54' W 075°08'0 0.0
2018-Feb-19 01:29N 39°54' W 075°08'0 0.0
2018-Feb-19 00:59N 39°54' W 075°08'0 0.0
2018-Feb-19 00:29N 39°54' W 075°08'0 0.0
2018-Feb-18 23:59N 39°54' W 075°08'0 0.0
2018-Feb-18 23:29N 39°54' W 075°08'0 0.0
2018-Feb-18 22:59N 39°54' W 075°08'0 0.0
2018-Feb-18 22:29N 39°54' W 075°08'0 0.0
2018-Feb-18 21:59N 39°54' W 075°08'0 0.0
2018-Feb-18 21:29N 39°54' W 075°08'0 0.0
2018-Feb-18 20:59N 39°54' W 075°08'0 0.0
2018-Feb-18 20:29N 39°54' W 075°08'0 0.0
2018-Feb-18 19:59N 39°54' W 075°08'0 0.0
2018-Feb-18 19:29N 39°54' W 075°08'0 0.0
2018-Feb-18 18:59N 39°54' W 075°08'0 0.0
2018-Feb-18 18:29N 39°54' W 075°08'0 0.0
2018-Feb-18 17:59N 39°54' W 075°08'0 0.0
2018-Feb-18 17:29N 39°54' W 075°08'0 0.0
2018-Feb-18 16:59N 39°54' W 075°08'0 0.0
2018-Feb-18 16:29N 39°54' W 075°08'0 0.0
2018-Feb-18 15:59N 39°54' W 075°08'0 0.0
2018-Feb-18 15:29N 39°54' W 075°08'0 0.0
2018-Feb-18 14:59N 39°54' W 075°08'0 0.0
2018-Feb-18 14:29N 39°54' W 075°08'0 0.0
2018-Feb-18 13:59N 39°54' W 075°08'0 0.0
2018-Feb-18 13:29N 39°54' W 075°08'0 0.0
2018-Feb-18 12:59N 39°54' W 075°08'0 0.0
2018-Feb-18 12:29N 39°54' W 075°08'0 0.0
2018-Feb-18 11:59N 39°54' W 075°08'0 0.3
2018-Feb-18 11:31N 39°54' W 075°08'4 7.9
2018-Feb-18 11:00N 39°52' W 075°13'610.8
2018-Feb-18 10:30N 39°51' W 075°20'5 9.8
2018-Feb-18 10:00N 39°48' W 075°25'611.1
2018-Feb-18 09:31N 39°44' W 075°30'815.5
2018-Feb-18 09:01N 39°38' W 075°35'815.2
2018-Feb-18 08:31N 39°30' W 075°33'815.6
2018-Feb-18 08:00N 39°23' W 075°29'917.3
2018-Feb-18 07:30N 39°17' W 075°21'817.0
2018-Feb-18 07:00N 39°10' W 075°15'816.7
2018-Feb-18 06:30N 39°02' W 075°10'816.3
2018-Feb-18 06:00N 38°55' W 075°06'  

Dump ship's entire track history